createdAt,value
2022-10-28T00:01:20.888Z,101523.41
2022-10-28T00:03:56.144Z,101521.91
2022-10-28T00:06:25.707Z,101518.38
2022-10-28T00:08:52.645Z,101517.72
2022-10-28T00:11:24.711Z,101523.38
2022-10-28T00:13:55.069Z,101517.19
2022-10-28T00:16:25.758Z,101509.66
2022-10-28T00:18:52.627Z,101509.47
2022-10-28T00:21:22.321Z,101520.41
2022-10-28T00:23:48.966Z,101507.44
2022-10-28T00:26:20.661Z,101510.28
2022-10-28T00:28:56.001Z,101511.06
2022-10-28T00:31:24.461Z,101512.75
2022-10-28T00:33:51.862Z,101510.59
2022-10-28T00:36:24.010Z,101510.59
2022-10-28T00:38:52.536Z,101508.88
2022-10-28T00:41:25.419Z,101521.34
2022-10-28T00:43:55.922Z,101518.31
2022-10-28T00:46:42.981Z,101515.47
2022-10-28T00:49:26.090Z,101514.84
2022-10-28T00:51:57.242Z,101511.47
2022-10-28T00:54:24.211Z,101509.31
2022-10-28T00:56:54.714Z,101514.63
2022-10-28T00:59:29.546Z,101512.38
2022-10-28T01:01:56.306Z,101514.25
2022-10-28T01:04:23.188Z,101506.56
2022-10-28T01:06:51.387Z,101509.47
2022-10-28T01:09:18.107Z,101499.13
2022-10-28T01:12:06.225Z,101498.47
2022-10-28T01:15:05.590Z,101502.69
2022-10-28T01:17:44.824Z,101512.09
2022-10-28T01:20:27.472Z,101502.38
2022-10-28T01:23:15.784Z,101498.09
2022-10-28T01:26:29.153Z,101506.56
2022-10-28T01:29:24.581Z,101488.75
2022-10-28T01:31:57.765Z,101490.53
2022-10-28T01:34:30.179Z,101489.53
2022-10-28T01:37:11.590Z,101489.91
2022-10-28T01:39:46.039Z,101486.78
2022-10-28T01:42:23.004Z,101487.63
2022-10-28T01:45:19.999Z,101488.13
2022-10-28T01:48:00.757Z,101488.91
2022-10-28T01:50:44.498Z,101488.16
2022-10-28T01:53:15.255Z,101480.38
2022-10-28T01:55:46.551Z,101484.56
2022-10-28T01:58:17.974Z,101479.56
2022-10-28T02:00:46.673Z,101481.78
2022-10-28T02:03:13.336Z,101482.22
2022-10-28T02:05:39.845Z,101485.84
2022-10-28T02:08:26.709Z,101483.50
2022-10-28T02:11:11.824Z,101478.78
2022-10-28T02:13:47.026Z,101489.88
2022-10-28T02:16:41.459Z,101492.06
2022-10-28T02:19:22.737Z,101481.34
2022-10-28T02:21:57.985Z,101486.84
2022-10-28T02:25:09.133Z,101481.97
2022-10-28T02:27:45.094Z,101491.38
2022-10-28T02:30:19.783Z,101485.53
2022-10-28T02:32:56.567Z,101482.06
2022-10-28T02:35:50.769Z,101480.06
2022-10-28T02:38:44.587Z,101481.47
2022-10-28T02:41:21.738Z,101484.88
2022-10-28T02:43:53.679Z,101475.13
2022-10-28T02:46:22.348Z,101483.28
2022-10-28T02:49:00.408Z,101472.00
2022-10-28T02:51:36.841Z,101481.66
2022-10-28T02:54:21.248Z,101485.84
2022-10-28T02:57:07.529Z,101477.28
2022-10-28T02:59:34.122Z,101479.16
2022-10-28T03:02:00.924Z,101474.56
2022-10-28T03:04:27.648Z,101479.06
2022-10-28T03:06:54.269Z,101479.72
2022-10-28T03:09:20.913Z,101480.63
2022-10-28T03:11:47.474Z,101480.50
2022-10-28T03:14:15.417Z,101482.25
2022-10-28T03:16:42.270Z,101477.59
2022-10-28T03:21:40.477Z,101478.91
2022-10-28T03:24:07.232Z,101479.38
2022-10-28T03:26:36.880Z,101483.50
2022-10-28T03:29:03.479Z,101484.94
2022-10-28T03:31:30.130Z,101478.25
2022-10-28T03:33:56.731Z,101488.47
2022-10-28T03:36:23.378Z,101485.31
2022-10-28T03:38:50.043Z,101482.97
2022-10-28T03:41:16.635Z,101482.81
2022-10-28T03:43:43.220Z,101474.84
2022-10-28T03:46:09.875Z,101483.97
2022-10-28T03:48:36.462Z,101481.22
2022-10-28T03:51:03.273Z,101481.75
2022-10-28T03:53:31.457Z,101477.75
2022-10-28T03:56:00.350Z,101480.59
2022-10-28T03:58:27.231Z,101478.19
2022-10-28T04:00:55.006Z,101472.88
2022-10-28T04:03:23.293Z,101474.66
2022-10-28T04:05:49.889Z,101475.13
2022-10-28T04:08:18.244Z,101471.50
2022-10-28T04:10:47.442Z,101476.91
2022-10-28T04:13:15.184Z,101474.25
2022-10-28T04:15:41.781Z,101474.19
2022-10-28T04:18:08.549Z,101468.00
2022-10-28T04:20:35.477Z,101468.16
2022-10-28T04:23:02.292Z,101471.25
2022-10-28T04:25:29.144Z,101469.25
2022-10-28T04:27:56.040Z,101468.63
2022-10-28T04:30:22.995Z,101462.38
2022-10-28T04:32:49.555Z,101460.53
2022-10-28T04:35:16.360Z,101456.41
2022-10-28T04:37:43.076Z,101452.00
2022-10-28T04:40:09.960Z,101451.03
2022-10-28T04:42:36.535Z,101455.25
2022-10-28T04:45:03.296Z,101454.34
2022-10-28T04:47:29.876Z,101455.28
2022-10-28T04:49:57.193Z,101455.63
2022-10-28T04:52:23.826Z,101452.09
2022-10-28T04:54:50.408Z,101449.28
2022-10-28T04:57:17.076Z,101449.19
2022-10-28T04:59:43.670Z,101446.66
2022-10-28T05:02:10.395Z,101443.69
2022-10-28T05:04:37.100Z,101445.50
2022-10-28T05:07:03.708Z,101439.19
2022-10-28T05:09:30.291Z,101440.31
2022-10-28T05:11:56.948Z,101440.97
2022-10-28T05:14:23.553Z,101448.72
2022-10-28T05:16:50.222Z,101438.91
2022-10-28T05:19:16.887Z,101443.50
2022-10-28T05:21:43.465Z,101440.09
2022-10-28T05:24:10.105Z,101438.00
2022-10-28T05:26:36.802Z,101444.00
2022-10-28T05:29:03.386Z,101437.16
2022-10-28T05:31:29.995Z,101443.97
2022-10-28T05:33:56.572Z,101446.69
2022-10-28T05:36:23.179Z,101443.03
2022-10-28T05:38:49.853Z,101451.63
2022-10-28T05:41:16.439Z,101454.03
2022-10-28T05:43:43.019Z,101456.22
2022-10-28T05:46:09.766Z,101462.34
2022-10-28T05:48:36.336Z,101464.72
2022-10-28T05:51:02.918Z,101469.94
2022-10-28T05:53:29.593Z,101475.53
2022-10-28T05:55:56.277Z,101478.50
2022-10-28T05:58:22.870Z,101478.78
2022-10-28T06:00:49.509Z,101483.91
2022-10-28T06:03:16.076Z,101488.47
2022-10-28T06:05:44.983Z,101490.94
2022-10-28T06:08:13.224Z,101485.66
2022-10-28T06:10:40.803Z,101485.53
2022-10-28T06:13:06.875Z,101494.41
2022-10-28T06:15:33.449Z,101490.31
2022-10-28T06:18:00.572Z,101492.22
2022-10-28T06:20:27.184Z,101491.97
2022-10-28T06:22:54.460Z,101488.72
2022-10-28T06:25:22.376Z,101492.19
2022-10-28T06:27:56.961Z,101493.53
2022-10-28T06:30:25.080Z,101490.75
2022-10-28T06:32:51.873Z,101491.34
2022-10-28T06:35:18.458Z,101496.88
2022-10-28T06:37:45.111Z,101499.53
2022-10-28T06:40:12.288Z,101501.28
2022-10-28T06:42:38.868Z,101495.63
2022-10-28T06:45:06.095Z,101496.88
2022-10-28T06:47:36.601Z,101499.47
2022-10-28T06:50:06.651Z,101499.25
2022-10-28T06:52:33.459Z,101497.94
2022-10-28T06:55:00.097Z,101495.59
2022-10-28T06:57:29.149Z,101499.06
2022-10-28T06:59:56.044Z,101502.41
2022-10-28T07:02:22.769Z,101496.88
2022-10-28T07:04:49.429Z,101505.81
2022-10-28T07:07:16.047Z,101514.47
2022-10-28T07:09:43.601Z,101511.97
2022-10-28T07:12:10.242Z,101512.88
2022-10-28T07:14:36.838Z,101517.84
2022-10-28T07:17:03.643Z,101522.16
2022-10-28T07:19:30.867Z,101517.84
2022-10-28T07:21:57.456Z,101522.31
2022-10-28T07:24:24.188Z,101530.31
2022-10-28T07:26:53.022Z,101527.78
2022-10-28T07:29:22.141Z,101515.59
2022-10-28T07:31:48.802Z,101522.13
2022-10-28T07:34:15.584Z,101512.28
2022-10-28T07:36:42.231Z,101520.31
2022-10-28T07:39:10.138Z,101517.25
2022-10-28T07:41:37.363Z,101522.00
2022-10-28T07:44:04.049Z,101523.06
2022-10-28T07:46:30.931Z,101523.16
2022-10-28T07:48:57.636Z,101525.03
2022-10-28T07:51:24.276Z,101524.06
2022-10-28T07:53:50.881Z,101516.00
2022-10-28T07:56:17.563Z,101528.91
2022-10-28T07:58:45.114Z,101527.97
2022-10-28T08:01:13.862Z,101533.22
2022-10-28T08:03:40.883Z,101529.03
2022-10-28T08:06:11.401Z,101526.22
2022-10-28T08:08:38.875Z,101523.47
2022-10-28T08:11:13.178Z,101529.13
2022-10-28T08:13:40.512Z,101522.78
2022-10-28T08:16:07.902Z,101514.25
2022-10-28T08:18:36.067Z,101514.16
2022-10-28T08:21:04.956Z,101508.66
2022-10-28T08:23:31.605Z,101506.88
2022-10-28T08:25:58.408Z,101507.22
2022-10-28T08:28:25.262Z,101494.91
2022-10-28T08:31:04.110Z,101496.44
2022-10-28T08:33:44.319Z,101503.28
2022-10-28T08:36:13.559Z,101507.94
2022-10-28T08:38:45.123Z,101501.69
2022-10-28T08:41:17.822Z,101496.38
2022-10-28T08:43:57.297Z,101502.78
2022-10-28T08:46:48.813Z,101506.34
2022-10-28T08:49:19.574Z,101508.09
2022-10-28T08:52:04.068Z,101517.75
2022-10-28T08:54:55.512Z,101522.25
2022-10-28T08:57:39.174Z,101521.50
2022-10-28T09:00:09.434Z,101523.81
2022-10-28T09:02:53.933Z,101528.34
2022-10-28T09:05:23.478Z,101529.13
2022-10-28T09:07:51.299Z,101534.91
2022-10-28T09:10:44.501Z,101532.16
2022-10-28T09:13:36.620Z,101529.69
2022-10-28T09:16:44.661Z,101528.31
2022-10-28T09:19:43.231Z,101531.19
2022-10-28T09:22:42.133Z,101533.22
2022-10-28T09:25:25.885Z,101534.94
2022-10-28T09:28:20.353Z,101536.81
2022-10-28T09:31:05.622Z,101543.13
2022-10-28T09:33:34.992Z,101526.97
2022-10-28T09:36:04.043Z,101523.94
2022-10-28T09:38:34.423Z,101525.28
2022-10-28T09:41:06.535Z,101522.28
2022-10-28T09:43:35.080Z,101521.94
2022-10-28T09:46:07.319Z,101519.06
2022-10-28T09:48:46.240Z,101527.97
2022-10-28T09:51:57.905Z,101529.63
2022-10-28T09:54:36.228Z,101525.03
2022-10-28T09:57:04.183Z,101529.22
2022-10-28T09:59:31.388Z,101528.28
2022-10-28T10:01:58.371Z,101523.25
2022-10-28T10:04:27.836Z,101524.31
2022-10-28T10:06:59.541Z,101520.34
2022-10-28T10:09:32.005Z,101515.25
2022-10-28T10:12:10.478Z,101520.03
2022-10-28T10:14:42.901Z,101527.88
2022-10-28T10:17:16.760Z,101521.28
2022-10-28T10:20:17.531Z,101514.47
2022-10-28T10:22:46.374Z,101529.53
2022-10-28T10:25:19.203Z,101518.81
2022-10-28T10:27:52.116Z,101523.31
2022-10-28T10:30:23.414Z,101518.88
2022-10-28T10:32:51.876Z,101526.53
2022-10-28T10:35:27.288Z,101522.88
2022-10-28T10:37:57.324Z,101528.25
2022-10-28T10:40:50.448Z,101524.88
2022-10-28T10:43:21.812Z,101520.75
2022-10-28T10:46:15.530Z,101518.19
2022-10-28T10:48:42.701Z,101523.03
2022-10-28T10:51:22.135Z,101522.34
2022-10-28T10:53:52.035Z,101514.59
2022-10-28T10:56:27.747Z,101514.34
2022-10-28T10:58:57.391Z,101507.41
2022-10-28T11:01:28.406Z,101513.47
2022-10-28T11:03:59.864Z,101509.97
2022-10-28T11:06:32.621Z,101497.78
2022-10-28T11:09:03.364Z,101508.16
2022-10-28T11:11:40.598Z,101501.53
2022-10-28T11:14:22.725Z,101497.25
2022-10-28T11:16:55.030Z,101492.63
2022-10-28T11:19:27.772Z,101498.13
2022-10-28T11:21:54.402Z,101499.63
2022-10-28T11:24:39.562Z,101489.91
2022-10-28T11:27:24.538Z,101493.34
2022-10-28T11:29:51.342Z,101497.81
2022-10-28T11:32:23.770Z,101499.16
2022-10-28T11:35:02.123Z,101502.31
2022-10-28T11:38:06.018Z,101495.75
2022-10-28T11:40:59.057Z,101497.06
2022-10-28T11:43:37.814Z,101493.31
2022-10-28T11:46:11.477Z,101486.41
2022-10-28T11:48:56.925Z,101484.47
2022-10-28T11:51:40.138Z,101476.69
2022-10-28T11:54:18.905Z,101477.75
2022-10-28T11:56:49.793Z,101477.53
2022-10-28T12:00:01.176Z,101470.75
2022-10-28T12:03:01.773Z,101459.97
2022-10-28T12:05:57.361Z,101463.63
2022-10-28T12:09:02.652Z,101458.59
2022-10-28T12:11:35.266Z,101461.59
2022-10-28T12:14:10.956Z,101458.16
2022-10-28T12:17:00.181Z,101453.09
2022-10-28T12:19:34.909Z,101458.78
2022-10-28T12:22:10.402Z,101459.34
2022-10-28T12:24:39.980Z,101448.84
2022-10-28T12:27:25.332Z,101444.81
2022-10-28T12:29:57.661Z,101439.22
2022-10-28T12:32:31.607Z,101436.41
2022-10-28T12:35:16.587Z,101440.84
2022-10-28T12:37:51.337Z,101439.66
2022-10-28T12:40:48.064Z,101443.22
2022-10-28T12:43:23.014Z,101441.59
2022-10-28T12:45:55.119Z,101435.25
2022-10-28T12:48:35.503Z,101441.25
2022-10-28T12:51:07.086Z,101429.22
2022-10-28T12:53:39.929Z,101423.84
2022-10-28T12:56:39.289Z,101420.53
2022-10-28T12:59:46.245Z,101428.22
2022-10-28T13:02:32.474Z,101417.47
2022-10-28T13:04:59.324Z,101416.38
2022-10-28T13:07:48.014Z,101414.44
2022-10-28T13:10:27.319Z,101414.94
2022-10-28T13:13:09.264Z,101420.13
2022-10-28T13:15:51.219Z,101418.34
2022-10-28T13:18:36.150Z,101416.22
2022-10-28T13:21:14.728Z,101411.38
2022-10-28T13:23:53.381Z,101410.25
2022-10-28T13:26:27.235Z,101408.72
2022-10-28T13:28:58.141Z,101408.38
2022-10-28T13:31:39.977Z,101410.97
2022-10-28T13:34:08.721Z,101419.56
2022-10-28T13:36:38.636Z,101415.78
2022-10-28T13:39:14.612Z,101414.91
2022-10-28T13:41:44.867Z,101416.03
2022-10-28T13:44:42.465Z,101411.06
2022-10-28T13:47:15.077Z,101421.31
2022-10-28T13:50:07.580Z,101412.28
2022-10-28T13:52:34.868Z,101419.25
2022-10-28T13:55:21.987Z,101422.13
2022-10-28T13:57:52.128Z,101412.56
2022-10-28T14:00:18.942Z,101414.66
2022-10-28T14:02:58.279Z,101416.13
2022-10-28T14:05:37.594Z,101409.69
2022-10-28T14:08:18.457Z,101408.16
2022-10-28T14:11:07.920Z,101412.47
2022-10-28T14:13:41.693Z,101415.84
2022-10-28T14:16:30.376Z,101412.13
2022-10-28T14:19:14.857Z,101423.09
2022-10-28T14:21:54.397Z,101424.34
2022-10-28T14:24:36.716Z,101427.59
2022-10-28T14:27:06.306Z,101431.09
2022-10-28T14:29:55.951Z,101429.69
2022-10-28T14:32:31.834Z,101426.41
2022-10-28T14:35:10.270Z,101419.09
2022-10-28T14:37:42.925Z,101413.31
2022-10-28T14:40:32.577Z,101420.28
2022-10-28T14:43:36.033Z,101412.38
2022-10-28T14:46:44.236Z,101411.44
2022-10-28T14:49:21.065Z,101411.41
2022-10-28T14:51:49.809Z,101408.91
2022-10-28T14:54:27.233Z,101414.47
2022-10-28T14:56:56.460Z,101405.84
2022-10-28T14:59:42.713Z,101405.88
2022-10-28T15:02:20.920Z,101410.31
2022-10-28T15:05:17.950Z,101409.84
2022-10-28T15:07:44.786Z,101399.69
2022-10-28T15:10:23.917Z,101398.47
2022-10-28T15:12:50.871Z,101400.81
2022-10-28T15:15:29.000Z,101400.09
2022-10-28T15:17:56.208Z,101395.78
2022-10-28T15:20:27.644Z,101396.03
2022-10-28T15:23:12.969Z,101386.13
2022-10-28T15:25:39.684Z,101389.41
2022-10-28T15:28:06.369Z,101385.47
2022-10-28T15:30:33.139Z,101385.47
2022-10-28T15:33:29.911Z,101384.94
2022-10-28T15:36:25.966Z,101383.44
2022-10-28T15:39:08.658Z,101379.28
2022-10-28T15:41:46.349Z,101384.50
2022-10-28T15:44:26.204Z,101371.53
2022-10-28T15:46:54.547Z,101378.81
2022-10-28T15:49:40.647Z,101373.72
2022-10-28T15:52:20.836Z,101374.19
2022-10-28T15:54:58.622Z,101371.78
2022-10-28T15:57:28.198Z,101377.88
2022-10-28T16:00:29.868Z,101370.91
2022-10-28T16:03:02.176Z,101379.09
2022-10-28T16:05:31.615Z,101378.03
2022-10-28T16:08:00.556Z,101384.69
2022-10-28T16:10:35.042Z,101385.78
2022-10-28T16:13:07.629Z,101385.53
2022-10-28T16:15:49.184Z,101376.16
2022-10-28T16:18:15.845Z,101381.25
2022-10-28T16:20:44.515Z,101383.78
2022-10-28T16:23:17.590Z,101386.22
2022-10-28T16:25:44.197Z,101378.88
2022-10-28T16:28:26.507Z,101382.09
2022-10-28T16:30:58.809Z,101369.75
2022-10-28T16:33:44.414Z,101378.31
2022-10-28T16:36:11.533Z,101367.59
2022-10-28T16:38:39.062Z,101366.97
2022-10-28T16:41:10.354Z,101364.84
2022-10-28T16:43:37.237Z,101373.41
2022-10-28T16:46:03.807Z,101375.72
2022-10-28T16:48:30.887Z,101370.25
2022-10-28T16:51:00.837Z,101380.47
2022-10-28T16:53:27.501Z,101377.28
2022-10-28T16:55:54.590Z,101387.38
2022-10-28T16:58:23.309Z,101381.41
2022-10-28T17:00:52.980Z,101384.66
2022-10-28T17:03:19.601Z,101390.53
2022-10-28T17:05:46.188Z,101398.19
2022-10-28T17:08:13.564Z,101404.13
2022-10-28T17:10:41.759Z,101393.69
2022-10-28T17:13:15.689Z,101393.19
2022-10-28T17:15:43.100Z,101384.81
2022-10-28T17:18:11.463Z,101397.09
2022-10-28T17:20:38.153Z,101386.50
2022-10-28T17:23:05.685Z,101389.56
2022-10-28T17:25:32.360Z,101387.91
2022-10-28T17:27:59.136Z,101386.78
2022-10-28T17:30:26.175Z,101387.34
2022-10-28T17:32:54.160Z,101394.38
2022-10-28T17:35:22.341Z,101389.94
2022-10-28T17:37:49.554Z,101383.97
2022-10-28T17:40:16.180Z,101396.22
2022-10-28T17:42:42.758Z,101394.47
2022-10-28T17:45:10.108Z,101390.84
2022-10-28T17:47:36.805Z,101383.75
2022-10-28T17:50:03.932Z,101387.13
2022-10-28T17:52:34.245Z,101386.47
2022-10-28T17:55:05.529Z,101377.19
2022-10-28T17:57:32.114Z,101380.25
2022-10-28T17:59:58.781Z,101389.78
2022-10-28T18:02:25.736Z,101399.44
2022-10-28T18:04:52.531Z,101391.25
2022-10-28T18:07:19.141Z,101382.13
2022-10-28T18:09:45.716Z,101379.75
2022-10-28T18:12:12.296Z,101384.72
2022-10-28T18:14:39.575Z,101385.03
2022-10-28T18:17:06.174Z,101391.88
2022-10-28T18:19:35.126Z,101385.16
2022-10-28T18:22:01.698Z,101383.06
2022-10-28T18:24:28.310Z,101388.13
2022-10-28T18:26:55.253Z,101375.41
2022-10-28T18:29:21.840Z,101371.38
2022-10-28T18:31:48.445Z,101371.13
2022-10-28T18:34:15.110Z,101371.81
2022-10-28T18:36:41.896Z,101374.34
2022-10-28T18:39:09.157Z,101374.84
2022-10-28T18:41:37.778Z,101368.44
2022-10-28T18:44:05.205Z,101370.25
2022-10-28T18:46:34.004Z,101361.56
2022-10-28T18:49:04.427Z,101362.94
2022-10-28T18:51:32.453Z,101365.59
2022-10-28T18:53:59.032Z,101362.53
2022-10-28T18:56:27.467Z,101362.78
2022-10-28T18:58:54.060Z,101353.69
2022-10-28T19:01:23.796Z,101355.78
2022-10-28T19:03:52.345Z,101359.34
2022-10-28T19:06:19.724Z,101351.75
2022-10-28T19:08:51.653Z,101353.69
2022-10-28T19:11:19.070Z,101356.72
2022-10-28T19:13:45.673Z,101357.59
2022-10-28T19:18:43.778Z,101358.44
2022-10-28T19:21:16.222Z,101357.88
2022-10-28T19:23:43.527Z,101344.69
2022-10-28T19:26:11.513Z,101350.78
2022-10-28T19:28:40.501Z,101354.44
2022-10-28T19:31:10.677Z,101352.41
2022-10-28T19:33:37.467Z,101357.84
2022-10-28T19:36:05.413Z,101353.31
2022-10-28T19:38:35.905Z,101359.09
2022-10-28T19:41:08.926Z,101359.84
2022-10-28T19:43:36.375Z,101368.94
2022-10-28T19:46:14.176Z,101370.25
2022-10-28T19:48:43.350Z,101373.28
2022-10-28T19:51:14.353Z,101366.50
2022-10-28T19:53:41.242Z,101371.19
2022-10-28T19:56:07.909Z,101375.81
2022-10-28T19:58:34.575Z,101373.63
2022-10-28T20:01:06.931Z,101373.72
2022-10-28T20:03:35.154Z,101373.13
2022-10-28T20:06:08.916Z,101378.22
2022-10-28T20:08:37.246Z,101375.47
2022-10-28T20:11:06.710Z,101382.78
2022-10-28T20:13:35.151Z,101393.03
2022-10-28T20:16:11.810Z,101382.34
2022-10-28T20:18:39.266Z,101393.94
2022-10-28T20:21:14.617Z,101392.09
2022-10-28T20:23:45.775Z,101390.03
2022-10-28T20:26:13.492Z,101386.88
2022-10-28T20:28:40.474Z,101379.38
2022-10-28T20:31:10.172Z,101375.00
2022-10-28T20:33:41.730Z,101383.31
2022-10-28T20:36:21.761Z,101383.28
2022-10-28T20:38:48.341Z,101384.47
2022-10-28T20:41:14.944Z,101384.75
2022-10-28T20:43:41.840Z,101388.75
2022-10-28T20:46:09.075Z,101383.22
2022-10-28T20:48:35.694Z,101377.63
2022-10-28T20:51:02.504Z,101382.00
2022-10-28T20:53:33.820Z,101387.09
2022-10-28T20:56:00.649Z,101382.44
2022-10-28T20:58:32.812Z,101383.88
2022-10-28T21:01:08.046Z,101383.84
2022-10-28T21:03:34.701Z,101380.66
2022-10-28T21:06:04.329Z,101379.19
2022-10-28T21:08:30.950Z,101379.09
2022-10-28T21:11:01.783Z,101374.69
2022-10-28T21:13:28.358Z,101367.38
2022-10-28T21:15:57.634Z,101372.75
2022-10-28T21:18:25.391Z,101373.53
2022-10-28T21:20:56.453Z,101377.16
2022-10-28T21:23:24.167Z,101374.31
2022-10-28T21:25:54.809Z,101370.06
2022-10-28T21:28:21.831Z,101363.47
2022-10-28T21:30:48.549Z,101368.41
2022-10-28T21:33:15.906Z,101364.59
2022-10-28T21:35:42.454Z,101376.75
2022-10-28T21:38:09.031Z,101371.13
2022-10-28T21:40:35.606Z,101374.31
2022-10-28T21:43:02.191Z,101369.00
2022-10-28T21:45:28.795Z,101368.25
2022-10-28T21:47:55.821Z,101363.03
2022-10-28T21:50:22.787Z,101362.69
2022-10-28T21:52:49.433Z,101359.09
2022-10-28T21:55:20.593Z,101365.81
2022-10-28T21:57:53.928Z,101359.44
2022-10-28T22:00:20.774Z,101372.88
2022-10-28T22:02:47.424Z,101374.63
2022-10-28T22:05:14.682Z,101356.63
2022-10-28T22:07:41.321Z,101357.34
2022-10-28T22:10:08.257Z,101353.94
2022-10-28T22:12:34.838Z,101353.94
2022-10-28T22:15:01.441Z,101348.94
2022-10-28T22:17:29.345Z,101356.56
2022-10-28T22:19:55.955Z,101350.13
2022-10-28T22:22:22.537Z,101352.66
2022-10-28T22:24:49.170Z,101345.00
2022-10-28T22:27:15.768Z,101347.69
2022-10-28T22:29:42.341Z,101337.44
2022-10-28T22:32:08.932Z,101338.97
2022-10-28T22:34:35.522Z,101336.34
2022-10-28T22:37:02.141Z,101344.69
2022-10-28T22:39:28.807Z,101339.47
2022-10-28T22:41:55.398Z,101338.97
2022-10-28T22:44:21.976Z,101338.56
2022-10-28T22:46:48.587Z,101338.72
2022-10-28T22:49:15.267Z,101335.75
2022-10-28T22:51:41.843Z,101331.72
2022-10-28T22:54:08.495Z,101332.06
2022-10-28T22:56:35.115Z,101323.38
2022-10-28T22:59:02.039Z,101325.69
2022-10-28T23:01:29.769Z,101323.75
2022-10-28T23:03:56.524Z,101320.44
2022-10-28T23:06:25.884Z,101319.84
2022-10-28T23:08:53.692Z,101321.88
2022-10-28T23:11:21.919Z,101309.34
2022-10-28T23:13:52.929Z,101315.44
2022-10-28T23:16:20.159Z,101316.81
2022-10-28T23:18:46.760Z,101317.25
2022-10-28T23:21:22.220Z,101318.84
2022-10-28T23:23:54.140Z,101318.25
2022-10-28T23:26:21.314Z,101321.38
2022-10-28T23:28:54.307Z,101323.13
2022-10-28T23:31:21.551Z,101315.09
2022-10-28T23:33:48.848Z,101318.63
2022-10-28T23:36:16.404Z,101309.44
2022-10-28T23:38:43.557Z,101306.75
2022-10-28T23:41:15.727Z,101312.34
2022-10-28T23:43:42.338Z,101315.75
2022-10-28T23:46:09.514Z,101321.06
2022-10-28T23:48:36.094Z,101320.25
2022-10-28T23:51:03.196Z,101310.81
2022-10-28T23:53:29.766Z,101309.06
2022-10-28T23:55:56.680Z,101313.53
2022-10-28T23:58:24.012Z,101320.19
